createdAt,value
2019-03-06T00:00:16.537Z,100787.00
2019-03-06T00:05:19.794Z,100770.28
2019-03-06T00:10:24.322Z,100779.23
2019-03-06T00:15:34.164Z,100778.45
2019-03-06T00:20:36.675Z,100775.22
2019-03-06T00:25:38.933Z,100767.37
2019-03-06T00:30:43.953Z,100762.31
2019-03-06T00:35:48.075Z,100751.91
2019-03-06T00:41:08.127Z,100747.46
2019-03-06T00:46:10.398Z,100727.34
2019-03-06T00:51:12.422Z,100721.98
2019-03-06T00:56:14.651Z,100716.61
2019-03-06T01:01:16.791Z,100714.87
2019-03-06T01:06:18.995Z,100711.16
2019-03-06T01:11:21.431Z,100708.59
2019-03-06T01:16:23.802Z,100705.04
2019-03-06T01:21:33.787Z,100707.27
2019-03-06T01:26:39.134Z,100695.78
2019-03-06T01:31:44.147Z,100693.11
2019-03-06T01:37:01.549Z,100684.80
2019-03-06T01:42:23.668Z,100680.55
2019-03-06T01:47:26.172Z,100670.52
2019-03-06T01:52:31.102Z,100670.03
2019-03-06T01:57:35.014Z,100655.83
2019-03-06T02:02:40.229Z,100644.45
2019-03-06T02:07:43.845Z,100617.97
2019-03-06T02:12:46.116Z,100611.25
2019-03-06T02:17:48.156Z,100611.02
2019-03-06T02:22:51.640Z,100589.58
2019-03-06T02:27:56.827Z,100606.44
2019-03-06T02:33:01.567Z,100592.11
2019-03-06T02:38:06.482Z,100578.84
2019-03-06T02:43:10.939Z,100564.31
2019-03-06T02:48:15.890Z,100561.09
2019-03-06T02:53:19.671Z,100554.81
2019-03-06T02:58:25.347Z,100537.97
2019-03-06T03:03:45.637Z,100537.77
2019-03-06T03:08:49.691Z,100523.09
2019-03-06T03:13:53.673Z,100520.08
2019-03-06T03:18:57.256Z,100507.66
2019-03-06T03:23:59.504Z,100498.91
2019-03-06T03:29:01.534Z,100495.14
2019-03-06T03:34:03.583Z,100485.56
2019-03-06T03:39:06.991Z,100484.20
2019-03-06T03:44:09.085Z,100496.48
2019-03-06T03:49:13.365Z,100489.19
2019-03-06T03:54:17.406Z,100473.45
2019-03-06T03:59:21.916Z,100458.08
2019-03-06T04:04:24.080Z,100450.11
2019-03-06T04:09:26.178Z,100442.41
2019-03-06T04:14:28.472Z,100430.98
2019-03-06T04:19:30.563Z,100432.30
2019-03-06T04:24:33.099Z,100416.17
2019-03-06T04:29:36.987Z,100417.23
2019-03-06T04:34:42.166Z,100412.25
2019-03-06T04:39:46.191Z,100401.31
2019-03-06T04:44:48.350Z,100394.59
2019-03-06T04:49:52.994Z,100388.55
2019-03-06T04:54:55.354Z,100384.14
2019-03-06T04:59:57.419Z,100363.51
2019-03-06T05:05:06.685Z,100358.52
2019-03-06T05:10:08.825Z,100346.92
2019-03-06T05:15:12.302Z,100347.77
2019-03-06T05:20:14.327Z,100341.55
2019-03-06T05:25:17.734Z,100331.94
2019-03-06T05:36:19.469Z,100303.67
2019-03-06T05:41:21.492Z,100280.34
2019-03-06T05:46:25.131Z,100275.46
2019-03-06T05:51:30.095Z,100266.77
2019-03-06T05:56:32.137Z,100256.22
2019-03-06T06:01:37.213Z,100250.66
2019-03-06T06:06:39.509Z,100248.19
2019-03-06T06:11:45.638Z,100241.13
2019-03-06T06:16:50.549Z,100224.88
2019-03-06T06:22:05.561Z,100208.59
2019-03-06T06:27:07.835Z,100205.03
2019-03-06T06:32:09.882Z,100192.89
2019-03-06T06:37:11.966Z,100195.91
2019-03-06T06:42:16.432Z,100192.64
2019-03-06T06:47:18.692Z,100179.73
2019-03-06T06:52:58.360Z,100166.80
2019-03-06T06:58:35.897Z,100157.20
2019-03-06T07:04:40.361Z,100141.93
2019-03-06T07:10:00.792Z,100149.03
2019-03-06T07:15:37.805Z,100133.70
2019-03-06T07:20:51.958Z,100115.90
2019-03-06T07:26:07.338Z,100102.55
2019-03-06T07:31:16.329Z,100086.59
2019-03-06T07:36:39.537Z,100066.91
2019-03-06T07:41:53.096Z,100053.66
2019-03-06T07:47:24.397Z,100043.40
2019-03-06T07:52:51.922Z,100046.53
2019-03-06T07:58:32.907Z,100035.45
2019-03-06T08:03:48.048Z,100030.13
2019-03-06T08:08:53.221Z,100023.49
2019-03-06T08:14:01.048Z,100012.50
2019-03-06T08:19:12.763Z,99997.86
2019-03-06T08:24:41.518Z,99994.22
2019-03-06T08:29:47.706Z,99985.55
2019-03-06T08:34:49.850Z,99980.89
2019-03-06T08:39:51.909Z,99979.41
2019-03-06T08:44:54.245Z,99976.11
2019-03-06T08:50:08.526Z,99987.95
2019-03-06T08:55:35.363Z,99999.88
2019-03-06T09:01:00.553Z,100004.97
2019-03-06T09:06:11.699Z,100002.11
2019-03-06T09:11:26.355Z,99992.41
2019-03-06T09:17:06.790Z,99990.73
2019-03-06T09:22:22.013Z,99980.56
2019-03-06T09:27:36.726Z,99975.08
2019-03-06T09:33:04.016Z,99969.31
2019-03-06T09:38:33.055Z,99979.58
2019-03-06T09:44:07.183Z,99960.80
2019-03-06T09:49:17.781Z,99949.84
2019-03-06T09:54:49.474Z,99929.32
2019-03-06T09:59:58.330Z,99917.59
2019-03-06T10:05:26.119Z,99913.50
2019-03-06T10:10:57.214Z,99912.13
2019-03-06T10:16:02.773Z,99901.56
2019-03-06T10:21:04.799Z,99896.59
2019-03-06T10:26:11.544Z,99886.55
2019-03-06T10:31:15.167Z,99861.87
2019-03-06T10:36:17.216Z,99861.87
2019-03-06T10:41:21.305Z,99856.55
2019-03-06T10:46:23.640Z,99842.73
2019-03-06T10:51:28.538Z,99842.73
2019-03-06T10:56:34.658Z,99839.01
2019-03-06T11:01:39.496Z,99839.01
2019-03-06T11:06:46.496Z,99841.37
2019-03-06T11:11:48.551Z,99838.86
2019-03-06T11:16:50.794Z,99832.67
2019-03-06T11:21:56.166Z,99824.87
2019-03-06T11:26:58.687Z,99816.29
2019-03-06T11:32:02.207Z,99816.63
2019-03-06T11:37:05.138Z,99803.27
2019-03-06T11:42:08.040Z,99790.14
2019-03-06T11:47:13.041Z,99786.39
2019-03-06T11:52:15.244Z,99781.45
2019-03-06T11:57:18.967Z,99768.73
2019-03-06T12:02:24.143Z,99770.00
2019-03-06T12:07:30.659Z,99761.66
2019-03-06T12:12:38.699Z,99749.06
2019-03-06T12:17:40.972Z,99740.97
2019-03-06T12:22:43.403Z,99740.97
2019-03-06T12:27:45.716Z,99728.81
2019-03-06T12:32:47.802Z,99715.05
2019-03-06T12:37:49.981Z,99709.81
2019-03-06T12:42:52.110Z,99709.44
2019-03-06T12:47:55.659Z,99709.72
2019-03-06T12:53:00.188Z,99705.50
2019-03-06T12:58:02.648Z,99699.72
2019-03-06T13:03:04.775Z,99693.11
2019-03-06T13:08:19.631Z,99655.67
2019-03-06T13:13:20.748Z,99663.11
2019-03-06T13:18:22.881Z,99655.89
2019-03-06T13:23:24.916Z,99646.50
2019-03-06T13:28:27.891Z,99646.50
2019-03-06T13:33:43.828Z,99639.56
2019-03-06T13:38:54.754Z,99625.70
2019-03-06T13:43:52.455Z,99621.26
2019-03-06T13:48:56.762Z,99628.89
2019-03-06T13:54:03.738Z,99599.61
2019-03-06T13:59:08.246Z,99594.83
2019-03-06T14:04:16.081Z,99594.83
2019-03-06T14:09:20.640Z,99583.41
2019-03-06T14:14:23.133Z,99583.41
2019-03-06T14:19:25.187Z,99578.88
2019-03-06T14:24:28.575Z,99570.16
2019-03-06T14:29:30.608Z,99564.84
2019-03-06T14:34:32.811Z,99558.73
2019-03-06T14:39:35.742Z,99559.92
2019-03-06T14:44:38.054Z,99552.20
2019-03-06T14:49:40.242Z,99552.20
2019-03-06T14:54:45.947Z,99547.94
2019-03-06T14:59:48.083Z,99543.89
2019-03-06T15:04:54.255Z,99540.72
2019-03-06T15:09:56.445Z,99527.34
2019-03-06T15:15:07.500Z,99517.19
2019-03-06T15:20:12.162Z,99517.17
2019-03-06T15:25:16.744Z,99500.60
2019-03-06T15:30:20.632Z,99496.31
2019-03-06T15:35:23.220Z,99487.34
2019-03-06T15:40:26.691Z,99481.88
2019-03-06T15:45:32.759Z,99480.75
2019-03-06T15:50:39.300Z,99472.25
2019-03-06T15:55:45.590Z,99472.25
2019-03-06T16:00:51.208Z,99475.42
2019-03-06T16:05:53.413Z,99478.22
2019-03-06T16:10:55.493Z,99477.82
2019-03-06T16:15:57.605Z,99473.63
2019-03-06T16:20:59.884Z,99451.87
2019-03-06T16:26:04.285Z,99445.34
2019-03-06T16:31:10.266Z,99440.72
2019-03-06T16:36:16.624Z,99435.27
2019-03-06T16:41:26.145Z,99426.06
2019-03-06T16:46:28.576Z,99420.84
2019-03-06T16:51:30.659Z,99420.84
2019-03-06T16:56:33.913Z,99427.69
2019-03-06T17:17:38.929Z,99426.74
2019-03-06T17:22:46.645Z,99432.32
2019-03-06T17:27:52.704Z,99433.65
2019-03-06T17:33:03.878Z,99436.33
2019-03-06T17:38:14.198Z,99431.98
2019-03-06T17:43:19.026Z,99443.45
2019-03-06T17:48:24.127Z,99441.18
2019-03-06T17:53:30.252Z,99440.89
2019-03-06T17:58:33.100Z,99438.47
2019-03-06T18:03:51.479Z,99443.45
2019-03-06T18:08:53.308Z,99428.73
2019-03-06T18:13:59.006Z,99420.42
2019-03-06T18:19:01.079Z,99420.42
2019-03-06T18:24:08.026Z,99414.28
2019-03-06T18:29:10.124Z,99413.89
2019-03-06T18:34:13.645Z,99408.88
2019-03-06T18:39:22.037Z,99414.22
2019-03-06T18:44:24.444Z,99418.62
2019-03-06T18:49:26.578Z,99410.45
2019-03-06T18:54:28.956Z,99414.06
2019-03-06T18:59:31.010Z,99408.81
2019-03-06T19:04:34.130Z,99404.92
2019-03-06T19:09:36.252Z,99410.66
2019-03-06T19:14:45.047Z,99404.55
2019-03-06T19:19:47.123Z,99400.15
2019-03-06T19:24:49.694Z,99391.17
2019-03-06T19:29:53.017Z,99394.23
2019-03-06T19:34:55.974Z,99382.88
2019-03-06T19:39:58.349Z,99376.60
2019-03-06T19:45:01.783Z,99376.87
2019-03-06T19:50:07.602Z,99376.87
2019-03-06T19:55:12.335Z,99372.69
2019-03-06T20:00:15.248Z,99382.16
2019-03-06T20:05:21.149Z,99374.56
2019-03-06T20:10:24.428Z,99357.30
2019-03-06T20:15:26.667Z,99359.55
2019-03-06T20:20:28.709Z,99359.26
2019-03-06T20:25:31.471Z,99356.55
2019-03-06T20:30:35.972Z,99351.98
2019-03-06T20:35:38.820Z,99339.17
2019-03-06T20:40:44.071Z,99326.06
2019-03-06T20:45:50.403Z,99321.71
2019-03-06T20:50:55.006Z,99309.59
2019-03-06T20:55:58.510Z,99316.39
2019-03-06T21:01:00.525Z,99316.39
2019-03-06T21:06:07.442Z,99310.77
2019-03-06T21:11:09.446Z,99307.70
2019-03-06T21:16:14.038Z,99311.50
2019-03-06T21:21:20.807Z,99309.33
2019-03-06T21:26:23.225Z,99303.99
2019-03-06T21:31:28.340Z,99302.31
2019-03-06T21:36:30.851Z,99307.36
2019-03-06T21:41:32.879Z,99305.88
2019-03-06T21:46:35.125Z,99299.53
2019-03-06T21:51:37.231Z,99294.64
2019-03-06T21:56:39.542Z,99278.78
2019-03-06T22:01:46.152Z,99275.93
2019-03-06T22:06:49.174Z,99275.93
2019-03-06T22:11:55.825Z,99267.45
2019-03-06T22:16:57.962Z,99267.92
2019-03-06T22:22:00.105Z,99257.64
2019-03-06T22:27:02.174Z,99252.05
2019-03-06T22:32:09.667Z,99245.99
2019-03-06T22:37:12.679Z,99244.27
2019-03-06T22:42:14.947Z,99245.08
2019-03-06T22:47:17.378Z,99232.47
2019-03-06T22:52:22.875Z,99231.00
2019-03-06T22:57:26.598Z,99228.73
2019-03-06T23:02:30.038Z,99224.92
2019-03-06T23:07:32.422Z,99219.45
2019-03-06T23:12:34.886Z,99209.45
2019-03-06T23:17:36.960Z,99211.62
2019-03-06T23:22:41.660Z,99212.98
2019-03-06T23:27:45.544Z,99203.62
2019-03-06T23:32:48.793Z,99188.63
2019-03-06T23:37:55.288Z,99188.91
2019-03-06T23:42:58.905Z,99177.62
2019-03-06T23:48:00.922Z,99184.37
2019-03-06T23:53:08.551Z,99163.50
2019-03-06T23:58:13.546Z,99161.45
